createdAt,value
2017-05-24T00:01:12.925Z,65.60
2017-05-24T00:03:41.235Z,66.00
2017-05-24T00:06:09.582Z,65.90
2017-05-24T00:08:37.894Z,66.20
2017-05-24T00:11:06.241Z,66.20
2017-05-24T00:13:34.555Z,66.10
2017-05-24T00:16:02.899Z,65.90
2017-05-24T00:18:31.216Z,65.90
2017-05-24T00:20:59.573Z,65.50
2017-05-24T00:23:27.888Z,65.60
2017-05-24T00:25:56.233Z,65.40
2017-05-24T00:28:24.561Z,65.50
2017-05-24T00:30:52.913Z,65.60
2017-05-24T00:33:21.263Z,65.70
2017-05-24T00:35:49.576Z,66.00
2017-05-24T00:38:17.948Z,66.10
2017-05-24T00:40:46.261Z,66.50
2017-05-24T00:43:14.604Z,67.20
2017-05-24T00:45:42.922Z,67.60
2017-05-24T00:48:11.270Z,68.00
2017-05-24T00:50:39.584Z,67.50
2017-05-24T00:53:07.928Z,67.60
2017-05-24T00:55:36.248Z,68.10
2017-05-24T00:58:04.598Z,68.20
2017-05-24T01:00:32.912Z,68.40
2017-05-24T01:03:01.261Z,68.40
2017-05-24T01:05:29.577Z,68.20
2017-05-24T01:07:57.928Z,68.50
2017-05-24T01:10:26.257Z,68.60
2017-05-24T01:12:54.617Z,68.80
2017-05-24T01:15:22.947Z,69.40
2017-05-24T01:17:51.294Z,69.60
2017-05-24T01:20:19.618Z,69.60
2017-05-24T01:22:47.966Z,69.60
2017-05-24T01:25:16.291Z,70.00
2017-05-24T01:27:44.633Z,69.30
2017-05-24T01:30:12.960Z,69.30
2017-05-24T01:32:41.303Z,69.40
2017-05-24T01:35:09.623Z,69.70
2017-05-24T01:37:37.990Z,70.10
2017-05-24T01:40:06.305Z,70.30
2017-05-24T01:42:34.650Z,70.20
2017-05-24T01:45:02.964Z,70.30
2017-05-24T01:47:31.306Z,70.70
2017-05-24T01:49:59.632Z,71.00
2017-05-24T01:52:27.984Z,71.30
2017-05-24T01:54:56.305Z,71.30
2017-05-24T01:57:24.661Z,71.20
2017-05-24T01:59:52.978Z,71.30
2017-05-24T02:02:21.337Z,71.10
2017-05-24T02:04:49.656Z,70.70
2017-05-24T02:07:18.007Z,70.50
2017-05-24T02:09:46.323Z,70.70
2017-05-24T02:12:14.671Z,71.00
2017-05-24T02:14:42.990Z,71.90
2017-05-24T02:17:11.329Z,71.20
2017-05-24T02:19:39.639Z,73.10
2017-05-24T02:22:07.978Z,72.70
2017-05-24T02:24:36.307Z,72.70
2017-05-24T02:27:04.657Z,72.70
2017-05-24T02:29:32.974Z,72.90
2017-05-24T02:32:01.287Z,72.80
2017-05-24T02:34:29.634Z,72.90
2017-05-24T02:36:57.951Z,73.20
2017-05-24T02:39:26.293Z,73.50
2017-05-24T02:41:54.612Z,73.60
2017-05-24T02:44:22.967Z,73.20
2017-05-24T02:46:51.286Z,73.00
2017-05-24T02:49:19.633Z,73.10
2017-05-24T02:51:47.949Z,73.30
2017-05-24T02:54:16.296Z,73.70
2017-05-24T02:56:44.622Z,73.70
2017-05-24T02:59:12.964Z,73.80
2017-05-24T03:01:41.276Z,73.80
2017-05-24T03:04:09.625Z,73.50
2017-05-24T03:06:37.947Z,73.50
2017-05-24T03:09:06.289Z,73.60
2017-05-24T03:11:34.614Z,73.70
2017-05-24T03:14:02.961Z,73.80
2017-05-24T03:16:31.268Z,73.80
2017-05-24T03:18:59.608Z,73.90
2017-05-24T03:21:27.932Z,74.00
2017-05-24T03:23:56.270Z,74.10
2017-05-24T03:26:24.589Z,74.30
2017-05-24T03:28:52.936Z,74.10
2017-05-24T03:31:21.256Z,74.00
2017-05-24T03:33:49.611Z,74.10
2017-05-24T03:36:17.921Z,74.10
2017-05-24T03:38:46.296Z,74.80
2017-05-24T03:41:14.617Z,74.00
2017-05-24T03:43:42.962Z,73.90
2017-05-24T03:46:11.284Z,73.90
2017-05-24T03:48:39.625Z,73.90
2017-05-24T03:51:07.942Z,74.50
2017-05-24T03:53:36.289Z,73.70
2017-05-24T03:56:04.599Z,73.70
2017-05-24T03:58:32.948Z,73.60
2017-05-24T04:01:01.269Z,73.30
2017-05-24T04:03:29.623Z,72.80
2017-05-24T04:05:57.945Z,72.70
2017-05-24T04:08:26.298Z,72.70
2017-05-24T04:10:54.611Z,72.70
2017-05-24T04:13:22.982Z,72.60
2017-05-24T04:15:51.300Z,72.50
2017-05-24T04:18:19.641Z,72.20
2017-05-24T04:20:47.952Z,71.90
2017-05-24T04:23:16.293Z,70.60
2017-05-24T04:25:44.616Z,70.10
2017-05-24T04:28:12.956Z,69.80
2017-05-24T04:30:41.272Z,69.20
2017-05-24T04:33:09.592Z,68.70
2017-05-24T04:35:37.947Z,68.20
2017-05-24T04:38:06.273Z,67.80
2017-05-24T04:40:34.616Z,67.10
2017-05-24T04:43:02.928Z,66.50
2017-05-24T04:45:31.301Z,65.80
2017-05-24T04:47:59.676Z,66.30
2017-05-24T04:50:28.024Z,65.20
2017-05-24T04:52:56.343Z,65.00
2017-05-24T04:55:24.698Z,65.90
2017-05-24T04:57:53.017Z,63.10
2017-05-24T05:00:21.361Z,60.80
2017-05-24T05:02:49.693Z,59.80
2017-05-24T05:05:18.043Z,59.20
2017-05-24T05:07:46.353Z,58.80
2017-05-24T05:10:14.702Z,58.60
2017-05-24T05:12:43.014Z,58.60
2017-05-24T05:15:11.369Z,58.60
2017-05-24T05:17:39.688Z,59.30
2017-05-24T05:20:08.088Z,58.80
2017-05-24T05:22:36.402Z,58.80
2017-05-24T05:25:04.752Z,58.80
2017-05-24T05:27:33.067Z,58.30
2017-05-24T05:30:01.467Z,57.40
2017-05-24T05:32:29.776Z,56.80
2017-05-24T05:34:58.165Z,56.40
2017-05-24T05:37:26.479Z,56.30
2017-05-24T05:39:54.828Z,56.40
2017-05-24T05:42:23.141Z,56.30
2017-05-24T05:44:51.494Z,56.20
2017-05-24T05:47:19.810Z,56.30
2017-05-24T05:49:48.161Z,56.40
2017-05-24T05:52:16.477Z,56.30
2017-05-24T05:54:44.831Z,56.20
2017-05-24T05:57:13.149Z,55.90
2017-05-24T05:59:41.501Z,55.60
2017-05-24T06:02:09.812Z,55.60
2017-05-24T06:04:38.155Z,55.70
2017-05-24T06:07:06.469Z,55.90
2017-05-24T06:09:34.818Z,55.90
2017-05-24T06:12:03.215Z,55.60
2017-05-24T06:14:31.569Z,55.10
2017-05-24T06:16:59.885Z,54.90
2017-05-24T06:19:28.228Z,54.50
2017-05-24T06:21:56.550Z,54.50
2017-05-24T06:24:24.888Z,54.40
2017-05-24T06:26:53.229Z,54.20
2017-05-24T06:29:21.578Z,54.10
2017-05-24T06:31:49.890Z,54.00
2017-05-24T06:34:18.204Z,53.80
2017-05-24T06:36:46.564Z,53.70
2017-05-24T06:39:14.883Z,53.70
2017-05-24T06:41:43.231Z,54.10
2017-05-24T06:44:11.553Z,54.30
2017-05-24T06:46:39.898Z,55.30
2017-05-24T06:49:08.230Z,55.90
2017-05-24T06:51:36.592Z,56.20
2017-05-24T06:54:04.912Z,56.40
2017-05-24T06:56:33.267Z,56.30
2017-05-24T06:59:01.590Z,55.50
2017-05-24T07:01:29.949Z,55.20
2017-05-24T07:03:58.267Z,54.90
2017-05-24T07:06:26.618Z,55.00
2017-05-24T07:08:55.014Z,54.90
2017-05-24T07:11:23.352Z,54.70
2017-05-24T07:13:51.669Z,54.80
2017-05-24T07:16:20.009Z,54.70
2017-05-24T07:18:48.331Z,54.20
2017-05-24T07:21:16.682Z,54.10
2017-05-24T07:23:44.996Z,53.90
2017-05-24T07:26:13.316Z,53.80
2017-05-24T07:28:41.658Z,53.50
2017-05-24T07:31:09.984Z,53.30
2017-05-24T07:33:38.322Z,53.30
2017-05-24T07:36:06.646Z,53.50
2017-05-24T07:38:34.993Z,53.00
2017-05-24T07:41:03.322Z,52.10
2017-05-24T07:43:31.649Z,51.90
2017-05-24T07:45:59.985Z,51.60
2017-05-24T07:48:28.311Z,51.60
2017-05-24T07:50:56.644Z,51.00
2017-05-24T07:53:24.971Z,50.90
2017-05-24T07:55:53.326Z,50.60
2017-05-24T07:58:21.640Z,51.00
2017-05-24T08:00:49.958Z,51.30
2017-05-24T08:03:18.296Z,51.00
2017-05-24T08:05:46.611Z,50.40
2017-05-24T08:08:14.941Z,50.20
2017-05-24T08:10:43.309Z,50.00
2017-05-24T08:13:11.659Z,50.10
2017-05-24T08:15:39.985Z,50.00
2017-05-24T08:18:08.312Z,49.50
2017-05-24T08:20:36.687Z,49.40
2017-05-24T08:23:05.013Z,49.00
2017-05-24T08:25:33.355Z,48.70
2017-05-24T08:28:01.680Z,47.60
2017-05-24T08:30:30.044Z,46.50
2017-05-24T08:32:58.353Z,46.30
2017-05-24T08:35:26.686Z,45.40
2017-05-24T08:37:55.027Z,46.00
2017-05-24T08:40:23.362Z,44.60
2017-05-24T08:42:51.703Z,43.80
2017-05-24T08:45:20.024Z,43.00
2017-05-24T08:47:48.452Z,41.60
2017-05-24T08:50:16.766Z,40.70
2017-05-24T08:52:45.205Z,39.80
2017-05-24T08:55:13.548Z,39.30
2017-05-24T08:57:41.864Z,39.00
2017-05-24T09:00:11.081Z,38.90
2017-05-24T09:02:39.419Z,39.20
2017-05-24T09:05:07.796Z,39.40
2017-05-24T09:07:36.117Z,40.30
2017-05-24T09:10:04.450Z,39.60
2017-05-24T09:12:32.798Z,39.80
2017-05-24T09:15:01.124Z,39.50
2017-05-24T09:17:29.470Z,39.50
2017-05-24T09:19:57.788Z,39.40
2017-05-24T09:22:26.143Z,39.80
2017-05-24T09:24:54.460Z,38.70
2017-05-24T09:27:22.785Z,38.90
2017-05-24T09:29:51.134Z,39.00
2017-05-24T09:32:19.453Z,39.30
2017-05-24T09:34:47.797Z,39.60
2017-05-24T09:37:16.116Z,39.20
2017-05-24T09:39:44.465Z,38.90
2017-05-24T09:42:12.839Z,39.70
2017-05-24T09:44:41.159Z,39.80
2017-05-24T09:47:09.506Z,39.00
2017-05-24T09:49:37.830Z,38.70
2017-05-24T09:52:06.172Z,38.10
2017-05-24T09:54:34.494Z,37.30
2017-05-24T09:57:02.867Z,36.60
2017-05-24T09:59:31.185Z,36.30
2017-05-24T10:01:59.499Z,35.50
2017-05-24T10:04:27.847Z,36.00
2017-05-24T10:06:56.171Z,36.20
2017-05-24T10:09:24.519Z,35.90
2017-05-24T10:11:52.841Z,36.80
2017-05-24T10:14:21.202Z,36.80
2017-05-24T10:16:49.528Z,37.40
2017-05-24T10:19:17.851Z,38.30
2017-05-24T10:21:46.190Z,39.40
2017-05-24T10:24:14.506Z,39.50
2017-05-24T10:26:42.854Z,39.30
2017-05-24T10:29:11.176Z,38.70
2017-05-24T10:31:39.574Z,38.50
2017-05-24T10:34:07.899Z,38.20
2017-05-24T10:36:36.215Z,38.00
2017-05-24T10:39:04.544Z,37.20
2017-05-24T10:41:38.453Z,36.50
2017-05-24T10:44:06.789Z,36.80
2017-05-24T10:46:35.113Z,36.60
2017-05-24T10:49:03.453Z,36.10
2017-05-24T10:51:31.769Z,36.20
2017-05-24T10:54:00.147Z,37.10
2017-05-24T10:56:28.464Z,38.10
2017-05-24T10:58:56.777Z,37.70
2017-05-24T11:01:25.113Z,38.60
2017-05-24T11:03:53.432Z,38.80
2017-05-24T11:06:21.781Z,39.20
2017-05-24T11:08:50.105Z,39.90
2017-05-24T11:11:18.463Z,40.80
2017-05-24T11:13:46.775Z,41.10
2017-05-24T11:16:15.093Z,40.50
2017-05-24T11:18:43.434Z,41.30
2017-05-24T11:21:11.758Z,41.40
2017-05-24T11:23:40.105Z,41.30
2017-05-24T11:26:08.425Z,41.10
2017-05-24T11:28:36.768Z,40.90
2017-05-24T11:31:05.079Z,40.30
2017-05-24T11:33:33.403Z,39.90
2017-05-24T11:36:01.736Z,39.30
2017-05-24T11:38:30.049Z,39.00
2017-05-24T11:40:58.381Z,39.10
2017-05-24T11:43:26.699Z,39.30
2017-05-24T11:45:55.033Z,39.00
2017-05-24T11:48:23.356Z,39.00
2017-05-24T11:50:51.667Z,38.50
2017-05-24T11:53:20.007Z,38.70
2017-05-24T11:55:48.316Z,38.70
2017-05-24T11:58:16.670Z,38.70
2017-05-24T12:00:44.997Z,39.20
2017-05-24T12:03:13.313Z,39.80
2017-05-24T12:05:42.081Z,40.40
2017-05-24T12:08:10.394Z,40.60
2017-05-24T12:10:38.741Z,41.00
2017-05-24T12:13:07.058Z,41.60
2017-05-24T12:15:35.406Z,42.30
2017-05-24T12:18:03.728Z,42.90
2017-05-24T12:20:32.036Z,42.70
2017-05-24T12:23:00.375Z,42.40
2017-05-24T12:25:28.692Z,42.20
2017-05-24T12:27:57.029Z,42.00
2017-05-24T12:30:25.347Z,41.90
2017-05-24T12:32:54.253Z,41.60
2017-05-24T12:35:22.593Z,41.60
2017-05-24T12:37:50.908Z,41.30
2017-05-24T12:40:19.288Z,41.00
2017-05-24T12:42:47.603Z,41.00
2017-05-24T12:45:15.960Z,41.20
2017-05-24T12:47:44.285Z,41.80
2017-05-24T12:50:12.606Z,41.80
2017-05-24T12:52:40.943Z,41.50
2017-05-24T12:55:09.265Z,41.30
2017-05-24T12:57:37.601Z,40.60
2017-05-24T13:00:05.919Z,41.20
2017-05-24T13:02:34.266Z,41.80
2017-05-24T13:05:02.591Z,41.80
2017-05-24T13:07:30.917Z,42.00
2017-05-24T13:09:59.257Z,42.70
2017-05-24T13:12:27.577Z,42.50
2017-05-24T13:14:55.923Z,42.40
2017-05-24T13:17:24.240Z,42.50
2017-05-24T13:19:52.588Z,42.90
2017-05-24T13:22:20.948Z,43.30
2017-05-24T13:24:49.269Z,43.60
2017-05-24T13:27:17.616Z,43.90
2017-05-24T13:29:45.928Z,44.50
2017-05-24T13:32:14.271Z,44.70
2017-05-24T13:34:42.593Z,44.90
2017-05-24T13:37:10.968Z,45.60
2017-05-24T13:39:39.285Z,46.40
2017-05-24T13:42:07.608Z,47.10
2017-05-24T13:44:35.953Z,47.50
2017-05-24T13:47:04.280Z,47.80
2017-05-24T13:49:32.629Z,48.30
2017-05-24T13:52:00.944Z,48.30
2017-05-24T13:54:29.317Z,48.30
2017-05-24T13:56:57.641Z,48.20
2017-05-24T13:59:25.960Z,48.10
2017-05-24T14:01:54.305Z,48.20
2017-05-24T14:04:22.619Z,48.20
2017-05-24T14:06:51.052Z,48.10
2017-05-24T14:09:19.373Z,47.10
2017-05-24T14:11:47.735Z,46.70
2017-05-24T14:14:16.053Z,46.30
2017-05-24T14:16:44.372Z,46.60
2017-05-24T14:19:12.719Z,45.50
2017-05-24T14:21:41.032Z,44.90
2017-05-24T14:24:09.380Z,45.30
2017-05-24T14:26:37.698Z,45.40
2017-05-24T14:29:06.069Z,46.20
2017-05-24T14:31:34.383Z,45.60
2017-05-24T14:34:02.696Z,46.00
2017-05-24T14:36:31.070Z,46.00
2017-05-24T14:38:59.387Z,46.00
2017-05-24T14:41:27.728Z,45.90
2017-05-24T14:43:56.057Z,45.70
2017-05-24T14:46:24.417Z,45.80
2017-05-24T14:48:52.747Z,45.70
2017-05-24T14:51:21.063Z,45.10
2017-05-24T14:53:49.415Z,45.50
2017-05-24T14:56:17.744Z,45.40
2017-05-24T14:58:46.086Z,44.70
2017-05-24T15:01:14.404Z,44.90
2017-05-24T15:03:42.775Z,44.80
2017-05-24T15:06:11.095Z,44.90
2017-05-24T15:08:39.428Z,44.30
2017-05-24T15:11:07.768Z,44.10
2017-05-24T15:13:36.100Z,44.40
2017-05-24T15:16:04.440Z,44.70
2017-05-24T15:18:32.832Z,44.70
2017-05-24T15:21:01.169Z,44.20
2017-05-24T15:23:29.496Z,44.00
2017-05-24T15:25:57.846Z,44.10
2017-05-24T15:28:26.223Z,44.50
2017-05-24T15:30:54.605Z,44.80
2017-05-24T15:33:22.947Z,45.90
2017-05-24T15:35:51.281Z,45.50
2017-05-24T15:38:19.630Z,45.50
2017-05-24T15:40:47.971Z,45.80
2017-05-24T15:43:16.313Z,45.90
2017-05-24T15:45:44.634Z,45.80
2017-05-24T15:48:12.976Z,45.80
2017-05-24T15:50:41.292Z,45.60
2017-05-24T15:53:09.613Z,45.90
2017-05-24T15:55:37.969Z,46.30
2017-05-24T15:58:06.286Z,46.50
2017-05-24T16:00:34.633Z,46.30
2017-05-24T16:03:02.960Z,46.20
2017-05-24T16:05:31.305Z,46.40
2017-05-24T16:07:59.629Z,46.40
2017-05-24T16:10:28.003Z,46.30
2017-05-24T16:12:56.320Z,46.50
2017-05-24T16:15:24.646Z,45.90
2017-05-24T16:17:52.988Z,45.50
2017-05-24T16:20:21.322Z,45.10
2017-05-24T16:22:49.670Z,44.90
2017-05-24T16:25:17.997Z,44.30
2017-05-24T16:27:46.347Z,44.30
2017-05-24T16:30:14.671Z,44.60
2017-05-24T16:32:43.026Z,44.60
2017-05-24T16:35:11.361Z,44.70
2017-05-24T16:37:39.686Z,44.80
2017-05-24T16:40:08.041Z,45.20
2017-05-24T16:42:36.361Z,45.40
2017-05-24T16:45:04.716Z,45.00
2017-05-24T16:47:33.043Z,44.70
2017-05-24T16:50:01.386Z,44.90
2017-05-24T16:52:29.706Z,44.20
2017-05-24T16:54:58.069Z,43.20
2017-05-24T16:57:26.387Z,42.90
2017-05-24T16:59:54.709Z,42.80
2017-05-24T17:02:23.369Z,41.70
2017-05-24T17:04:51.830Z,39.80
2017-05-24T17:07:20.168Z,38.70
2017-05-24T17:09:48.484Z,37.30
2017-05-24T17:12:16.825Z,36.20
2017-05-24T17:14:45.448Z,35.80
2017-05-24T17:17:13.879Z,36.40
2017-05-24T17:19:42.361Z,37.10
2017-05-24T17:22:10.679Z,37.80
2017-05-24T17:24:39.013Z,38.30
2017-05-24T17:27:07.324Z,39.00
2017-05-24T17:29:36.561Z,39.70
2017-05-24T17:32:04.880Z,39.60
2017-05-24T17:34:33.282Z,39.90
2017-05-24T17:37:01.587Z,39.90
2017-05-24T17:39:29.938Z,40.00
2017-05-24T17:41:58.288Z,40.50
2017-05-24T17:44:26.598Z,40.70
2017-05-24T17:46:54.941Z,41.20
2017-05-24T17:49:23.262Z,41.50
2017-05-24T17:51:51.610Z,41.20
2017-05-24T17:54:19.929Z,41.50
2017-05-24T17:56:48.573Z,42.00
2017-05-24T17:59:16.892Z,42.40
2017-05-24T18:01:45.243Z,42.60
2017-05-24T18:04:13.566Z,43.10
2017-05-24T18:06:41.877Z,44.00
2017-05-24T18:09:10.245Z,43.40
2017-05-24T18:11:38.565Z,43.10
2017-05-24T18:14:06.933Z,43.20
2017-05-24T18:16:35.280Z,43.50
2017-05-24T18:19:03.628Z,44.30
2017-05-24T18:21:31.989Z,44.20
2017-05-24T18:24:00.353Z,43.90
2017-05-24T18:26:28.674Z,43.40
2017-05-24T18:28:57.000Z,43.80
2017-05-24T18:31:25.353Z,44.20
2017-05-24T18:33:53.669Z,44.00
2017-05-24T18:36:22.030Z,44.60
2017-05-24T18:38:50.351Z,44.90
2017-05-24T18:41:18.700Z,45.20
2017-05-24T18:43:47.020Z,45.40
2017-05-24T18:46:15.377Z,45.70
2017-05-24T18:48:43.685Z,45.90
2017-05-24T18:51:12.008Z,46.30
2017-05-24T18:53:40.411Z,47.00
2017-05-24T18:56:08.724Z,47.10
2017-05-24T18:58:37.061Z,47.60
2017-05-24T19:01:05.384Z,48.50
2017-05-24T19:03:33.826Z,48.70
2017-05-24T19:06:02.840Z,49.20
2017-05-24T19:08:31.215Z,49.90
2017-05-24T19:10:59.543Z,50.70
2017-05-24T19:13:27.854Z,51.60
2017-05-24T19:15:56.191Z,52.40
2017-05-24T19:18:24.511Z,53.70
2017-05-24T19:20:52.854Z,53.60
2017-05-24T19:23:21.193Z,53.40
2017-05-24T19:25:49.530Z,53.60
2017-05-24T19:28:17.852Z,54.00
2017-05-24T19:30:46.225Z,54.30
2017-05-24T19:33:14.596Z,54.90
2017-05-24T19:35:42.935Z,55.50
2017-05-24T19:38:11.303Z,56.00
2017-05-24T19:40:39.645Z,56.20
2017-05-24T19:43:07.991Z,56.60
2017-05-24T19:45:36.309Z,56.80
2017-05-24T19:48:04.721Z,57.20
2017-05-24T19:50:33.108Z,57.60
2017-05-24T19:53:01.591Z,57.90
2017-05-24T19:55:29.922Z,58.20
2017-05-24T19:57:58.238Z,58.70
2017-05-24T20:00:26.655Z,59.10
2017-05-24T20:02:55.028Z,59.50
2017-05-24T20:05:23.574Z,59.90
2017-05-24T20:07:52.037Z,60.10
2017-05-24T20:10:20.377Z,60.80
2017-05-24T20:12:48.798Z,61.30
2017-05-24T20:15:17.149Z,61.80
2017-05-24T20:17:45.472Z,62.50
2017-05-24T20:20:13.874Z,62.90
2017-05-24T20:22:42.210Z,63.60
2017-05-24T20:25:10.525Z,64.20
2017-05-24T20:27:38.864Z,64.80
2017-05-24T20:30:07.235Z,65.10
2017-05-24T20:32:35.586Z,65.50
2017-05-24T20:35:03.985Z,65.60
2017-05-24T20:37:32.341Z,65.80
2017-05-24T20:40:00.681Z,66.00
2017-05-24T20:42:29.083Z,66.10
2017-05-24T20:44:57.410Z,66.40
2017-05-24T20:47:25.845Z,66.70
2017-05-24T20:49:54.234Z,67.00
2017-05-24T20:52:22.557Z,67.30
2017-05-24T20:54:50.959Z,67.60
2017-05-24T20:57:19.283Z,68.00
2017-05-24T20:59:47.625Z,68.30
2017-05-24T21:02:15.936Z,68.30
2017-05-24T21:04:44.340Z,68.50
2017-05-24T21:07:12.669Z,68.90
2017-05-24T21:09:41.013Z,69.20
2017-05-24T21:12:09.325Z,69.50
2017-05-24T21:14:37.640Z,69.90
2017-05-24T21:17:05.999Z,71.00
2017-05-24T21:19:34.320Z,70.40
2017-05-24T21:22:02.711Z,70.60
2017-05-24T21:24:31.033Z,70.80
2017-05-24T21:26:59.377Z,70.90
2017-05-24T21:29:27.705Z,70.90
2017-05-24T21:31:56.211Z,71.00
2017-05-24T21:34:24.532Z,71.10
2017-05-24T21:36:52.860Z,71.40
2017-05-24T21:39:20.438Z,71.30
2017-05-24T21:41:48.801Z,71.70
2017-05-24T21:44:17.171Z,71.80
2017-05-24T21:46:45.491Z,71.90
2017-05-24T21:49:13.844Z,72.00
2017-05-24T21:51:42.171Z,72.10
2017-05-24T21:54:10.552Z,72.10
2017-05-24T21:56:38.870Z,72.00
2017-05-24T21:59:07.221Z,71.90
2017-05-24T22:01:35.566Z,71.70
2017-05-24T22:04:03.883Z,71.60
2017-05-24T22:06:32.248Z,71.40
2017-05-24T22:09:00.589Z,71.40
2017-05-24T22:11:29.001Z,71.30
2017-05-24T22:13:57.460Z,71.30
2017-05-24T22:16:25.800Z,71.20
2017-05-24T22:18:54.241Z,71.00
2017-05-24T22:21:22.611Z,70.90
2017-05-24T22:23:50.958Z,70.80
2017-05-24T22:26:19.285Z,70.80
2017-05-24T22:28:47.621Z,71.00
2017-05-24T22:31:15.939Z,71.10
2017-05-24T22:33:44.296Z,71.40
2017-05-24T22:36:12.615Z,71.40
2017-05-24T22:38:40.931Z,71.00
2017-05-24T22:41:09.354Z,70.50
2017-05-24T22:43:37.764Z,70.10
2017-05-24T22:46:06.105Z,70.00
2017-05-24T22:48:34.424Z,70.00
2017-05-24T22:51:02.761Z,69.80
2017-05-24T22:53:31.093Z,69.70
2017-05-24T22:55:59.463Z,69.80
2017-05-24T22:58:27.777Z,69.90
2017-05-24T23:00:56.099Z,69.70
2017-05-24T23:03:24.447Z,69.60
2017-05-24T23:05:52.764Z,69.70
2017-05-24T23:08:21.101Z,69.80
2017-05-24T23:10:49.627Z,70.00
2017-05-24T23:13:17.962Z,70.10
2017-05-24T23:15:46.285Z,70.50
2017-05-24T23:18:14.659Z,70.40
2017-05-24T23:20:42.976Z,70.60
2017-05-24T23:23:11.293Z,70.90
2017-05-24T23:25:39.742Z,71.40
2017-05-24T23:28:08.061Z,71.60
2017-05-24T23:30:36.404Z,72.00
2017-05-24T23:33:04.716Z,73.30
2017-05-24T23:35:33.048Z,73.30
2017-05-24T23:38:01.399Z,73.40
2017-05-24T23:40:29.769Z,73.60
2017-05-24T23:42:58.089Z,73.80
2017-05-24T23:45:26.407Z,73.90
2017-05-24T23:47:54.747Z,74.10
2017-05-24T23:50:23.071Z,74.20
2017-05-24T23:52:51.459Z,74.40
2017-05-24T23:55:19.803Z,74.60
2017-05-24T23:57:48.149Z,74.60
